sensor_id;sensor_type;location;lat;lon;timestamp;temperature;humidity
46816;DHT22;32787;53.316;8.670;2023-05-27T00:00:58;7.10;88.60
46816;DHT22;32787;53.316;8.670;2023-05-27T00:03:24;7.20;88.70
46816;DHT22;32787;53.316;8.670;2023-05-27T00:05:50;7.10;88.60
46816;DHT22;32787;53.316;8.670;2023-05-27T00:08:15;7.10;88.70
46816;DHT22;32787;53.316;8.670;2023-05-27T00:10:41;7.00;88.70
46816;DHT22;32787;53.316;8.670;2023-05-27T00:13:06;6.90;88.60
46816;DHT22;32787;53.316;8.670;2023-05-27T00:15:32;6.80;88.80
46816;DHT22;32787;53.316;8.670;2023-05-27T00:17:58;6.80;89.10
46816;DHT22;32787;53.316;8.670;2023-05-27T00:20:27;6.80;89.00
46816;DHT22;32787;53.316;8.670;2023-05-27T00:22:55;6.90;89.20
46816;DHT22;32787;53.316;8.670;2023-05-27T00:25:22;6.90;89.10
46816;DHT22;32787;53.316;8.670;2023-05-27T00:27:48;6.90;88.90
46816;DHT22;32787;53.316;8.670;2023-05-27T00:30:15;6.90;88.70
46816;DHT22;32787;53.316;8.670;2023-05-27T00:32:41;6.80;88.90
46816;DHT22;32787;53.316;8.670;2023-05-27T00:35:07;6.80;89.10
46816;DHT22;32787;53.316;8.670;2023-05-27T00:37:33;6.80;89.10
46816;DHT22;32787;53.316;8.670;2023-05-27T00:39:59;6.80;89.10
46816;DHT22;32787;53.316;8.670;2023-05-27T00:42:25;6.70;89.20
46816;DHT22;32787;53.316;8.670;2023-05-27T00:44:50;6.70;89.30
46816;DHT22;32787;53.316;8.670;2023-05-27T00:47:17;6.60;89.50
46816;DHT22;32787;53.316;8.670;2023-05-27T00:49:43;6.60;89.60
46816;DHT22;32787;53.316;8.670;2023-05-27T00:52:09;6.60;89.60
46816;DHT22;32787;53.316;8.670;2023-05-27T00:54:35;6.50;89.70
46816;DHT22;32787;53.316;8.670;2023-05-27T00:57:01;6.40;89.70
46816;DHT22;32787;53.316;8.670;2023-05-27T00:59:28;6.40;89.80
46816;DHT22;32787;53.316;8.670;2023-05-27T01:01:53;6.40;89.80
46816;DHT22;32787;53.316;8.670;2023-05-27T01:04:20;6.40;89.90
46816;DHT22;32787;53.316;8.670;2023-05-27T01:09:49;6.30;90.00
46816;DHT22;32787;53.316;8.670;2023-05-27T01:15:05;6.30;90.10
46816;DHT22;32787;53.316;8.670;2023-05-27T01:17:32;6.40;89.70
46816;DHT22;32787;53.316;8.670;2023-05-27T01:20:03;6.40;89.80
46816;DHT22;32787;53.316;8.670;2023-05-27T01:22:31;6.70;90.20
46816;DHT22;32787;53.316;8.670;2023-05-27T01:24:57;6.60;89.90
46816;DHT22;32787;53.316;8.670;2023-05-27T01:27:23;6.60;89.70
46816;DHT22;32787;53.316;8.670;2023-05-27T01:29:52;6.50;89.50
46816;DHT22;32787;53.316;8.670;2023-05-27T01:32:32;6.40;89.70
46816;DHT22;32787;53.316;8.670;2023-05-27T01:35:07;6.40;89.90
46816;DHT22;32787;53.316;8.670;2023-05-27T01:37:37;6.40;89.90
46816;DHT22;32787;53.316;8.670;2023-05-27T01:40:07;6.30;89.70
46816;DHT22;32787;53.316;8.670;2023-05-27T01:42:35;6.30;89.60
46816;DHT22;32787;53.316;8.670;2023-05-27T01:45:02;6.40;89.70
46816;DHT22;32787;53.316;8.670;2023-05-27T01:47:30;6.30;89.70
46816;DHT22;32787;53.316;8.670;2023-05-27T01:49:56;6.30;89.70
46816;DHT22;32787;53.316;8.670;2023-05-27T01:52:21;6.30;89.80
46816;DHT22;32787;53.316;8.670;2023-05-27T01:54:47;6.40;89.80
46816;DHT22;32787;53.316;8.670;2023-05-27T01:57:13;6.40;89.40
46816;DHT22;32787;53.316;8.670;2023-05-27T01:59:38;6.40;89.50
46816;DHT22;32787;53.316;8.670;2023-05-27T02:02:05;6.60;89.10
46816;DHT22;32787;53.316;8.670;2023-05-27T02:04:30;6.50;89.30
46816;DHT22;32787;53.316;8.670;2023-05-27T02:06:56;6.40;89.40
46816;DHT22;32787;53.316;8.670;2023-05-27T02:09:22;6.50;89.50
46816;DHT22;32787;53.316;8.670;2023-05-27T02:11:47;6.50;89.40
46816;DHT22;32787;53.316;8.670;2023-05-27T02:14:13;6.40;89.30
46816;DHT22;32787;53.316;8.670;2023-05-27T02:16:39;6.20;89.40
46816;DHT22;32787;53.316;8.670;2023-05-27T02:19:05;6.10;89.80
46816;DHT22;32787;53.316;8.670;2023-05-27T02:21:31;6.00;89.70
46816;DHT22;32787;53.316;8.670;2023-05-27T02:23:57;5.90;89.80
46816;DHT22;32787;53.316;8.670;2023-05-27T02:26:23;5.90;89.90
46816;DHT22;32787;53.316;8.670;2023-05-27T02:28:48;5.80;90.00
46816;DHT22;32787;53.316;8.670;2023-05-27T02:31:14;5.90;90.30
46816;DHT22;32787;53.316;8.670;2023-05-27T02:33:40;6.30;90.00
46816;DHT22;32787;53.316;8.670;2023-05-27T02:36:06;6.20;89.60
46816;DHT22;32787;53.316;8.670;2023-05-27T02:38:32;6.10;89.50
46816;DHT22;32787;53.316;8.670;2023-05-27T02:40:58;5.90;89.60
46816;DHT22;32787;53.316;8.670;2023-05-27T02:43:23;5.80;89.90
46816;DHT22;32787;53.316;8.670;2023-05-27T02:45:49;5.80;90.10
46816;DHT22;32787;53.316;8.670;2023-05-27T02:48:14;5.80;90.30
46816;DHT22;32787;53.316;8.670;2023-05-27T02:50:40;5.70;90.00
46816;DHT22;32787;53.316;8.670;2023-05-27T02:53:05;5.50;90.10
46816;DHT22;32787;53.316;8.670;2023-05-27T02:55:31;5.50;90.30
46816;DHT22;32787;53.316;8.670;2023-05-27T02:57:57;5.50;90.40
46816;DHT22;32787;53.316;8.670;2023-05-27T03:00:22;5.60;90.50
46816;DHT22;32787;53.316;8.670;2023-05-27T03:02:48;5.50;90.40
46816;DHT22;32787;53.316;8.670;2023-05-27T03:05:14;5.40;90.60
46816;DHT22;32787;53.316;8.670;2023-05-27T03:07:39;5.40;90.80
46816;DHT22;32787;53.316;8.670;2023-05-27T03:10:07;5.40;90.80
46816;DHT22;32787;53.316;8.670;2023-05-27T03:12:33;5.40;90.90
46816;DHT22;32787;53.316;8.670;2023-05-27T03:14:59;5.40;90.90
46816;DHT22;32787;53.316;8.670;2023-05-27T03:17:24;5.40;90.70
46816;DHT22;32787;53.316;8.670;2023-05-27T03:19:50;5.40;90.70
46816;DHT22;32787;53.316;8.670;2023-05-27T03:22:16;5.40;90.70
46816;DHT22;32787;53.316;8.670;2023-05-27T03:24:42;5.40;90.70
46816;DHT22;32787;53.316;8.670;2023-05-27T03:27:08;5.40;90.70
46816;DHT22;32787;53.316;8.670;2023-05-27T03:29:33;5.40;90.70
46816;DHT22;32787;53.316;8.670;2023-05-27T03:32:00;5.50;90.90
46816;DHT22;32787;53.316;8.670;2023-05-27T03:34:25;5.80;90.50
46816;DHT22;32787;53.316;8.670;2023-05-27T03:36:51;5.70;90.20
46816;DHT22;32787;53.316;8.670;2023-05-27T03:39:17;5.50;90.30
46816;DHT22;32787;53.316;8.670;2023-05-27T03:41:43;5.60;90.40
46816;DHT22;32787;53.316;8.670;2023-05-27T03:44:09;5.80;90.40
46816;DHT22;32787;53.316;8.670;2023-05-27T03:46:35;5.80;90.30
46816;DHT22;32787;53.316;8.670;2023-05-27T03:49:01;5.70;90.20
46816;DHT22;32787;53.316;8.670;2023-05-27T03:51:27;5.50;90.20
46816;DHT22;32787;53.316;8.670;2023-05-27T03:53:52;5.70;90.40
46816;DHT22;32787;53.316;8.670;2023-05-27T03:56:18;5.90;90.30
46816;DHT22;32787;53.316;8.670;2023-05-27T03:58:44;5.90;89.90
46816;DHT22;32787;53.316;8.670;2023-05-27T04:01:09;5.70;89.80
46816;DHT22;32787;53.316;8.670;2023-05-27T04:03:36;5.50;90.10
46816;DHT22;32787;53.316;8.670;2023-05-27T04:06:02;5.80;90.20
46816;DHT22;32787;53.316;8.670;2023-05-27T04:08:28;5.80;89.90
46816;DHT22;32787;53.316;8.670;2023-05-27T04:10:55;5.60;90.00
46816;DHT22;32787;53.316;8.670;2023-05-27T04:13:20;5.50;90.10
46816;DHT22;32787;53.316;8.670;2023-05-27T04:15:46;5.60;90.40
46816;DHT22;32787;53.316;8.670;2023-05-27T04:18:12;5.60;90.40
46816;DHT22;32787;53.316;8.670;2023-05-27T04:20:39;5.60;90.50
46816;DHT22;32787;53.316;8.670;2023-05-27T04:23:09;5.60;90.60
46816;DHT22;32787;53.316;8.670;2023-05-27T04:25:35;5.50;90.70
46816;DHT22;32787;53.316;8.670;2023-05-27T04:28:02;5.70;90.80
46816;DHT22;32787;53.316;8.670;2023-05-27T04:30:32;5.70;90.60
46816;DHT22;32787;53.316;8.670;2023-05-27T04:32:59;5.60;90.80
46816;DHT22;32787;53.316;8.670;2023-05-27T04:35:25;5.60;91.20
46816;DHT22;32787;53.316;8.670;2023-05-27T04:37:51;5.70;91.30
46816;DHT22;32787;53.316;8.670;2023-05-27T04:40:17;5.80;91.40
46816;DHT22;32787;53.316;8.670;2023-05-27T04:42:43;6.00;91.30
46816;DHT22;32787;53.316;8.670;2023-05-27T04:45:10;6.00;91.10
46816;DHT22;32787;53.316;8.670;2023-05-27T04:47:37;6.10;91.10
46816;DHT22;32787;53.316;8.670;2023-05-27T04:50:06;6.20;90.90
46816;DHT22;32787;53.316;8.670;2023-05-27T04:52:33;6.40;90.90
46816;DHT22;32787;53.316;8.670;2023-05-27T04:55:06;6.50;90.70
46816;DHT22;32787;53.316;8.670;2023-05-27T04:57:33;6.50;90.50
46816;DHT22;32787;53.316;8.670;2023-05-27T04:59:59;6.60;90.70
46816;DHT22;32787;53.316;8.670;2023-05-27T05:02:28;6.80;90.70
46816;DHT22;32787;53.316;8.670;2023-05-27T05:05:07;6.90;90.60
46816;DHT22;32787;53.316;8.670;2023-05-27T05:07:41;6.90;90.80
46816;DHT22;32787;53.316;8.670;2023-05-27T05:10:07;7.00;90.70
46816;DHT22;32787;53.316;8.670;2023-05-27T05:12:33;7.20;90.70
46816;DHT22;32787;53.316;8.670;2023-05-27T05:14:59;7.40;90.70
46816;DHT22;32787;53.316;8.670;2023-05-27T05:17:25;7.40;90.70
46816;DHT22;32787;53.316;8.670;2023-05-27T05:19:51;7.60;90.90
46816;DHT22;32787;53.316;8.670;2023-05-27T05:22:17;8.00;90.90
46816;DHT22;32787;53.316;8.670;2023-05-27T05:24:48;8.10;90.40
46816;DHT22;32787;53.316;8.670;2023-05-27T05:27:14;8.40;90.00
46816;DHT22;32787;53.316;8.670;2023-05-27T05:29:40;8.30;90.10
46816;DHT22;32787;53.316;8.670;2023-05-27T05:32:07;8.30;90.20
46816;DHT22;32787;53.316;8.670;2023-05-27T05:34:34;8.40;90.30
46816;DHT22;32787;53.316;8.670;2023-05-27T05:36:59;8.40;90.20
46816;DHT22;32787;53.316;8.670;2023-05-27T05:39:25;8.60;90.20
46816;DHT22;32787;53.316;8.670;2023-05-27T05:41:51;8.70;90.10
46816;DHT22;32787;53.316;8.670;2023-05-27T05:44:17;8.70;90.00
46816;DHT22;32787;53.316;8.670;2023-05-27T05:46:43;8.80;90.10
46816;DHT22;32787;53.316;8.670;2023-05-27T05:49:09;9.00;89.80
46816;DHT22;32787;53.316;8.670;2023-05-27T05:51:35;9.30;88.50
46816;DHT22;32787;53.316;8.670;2023-05-27T05:54:00;9.30;88.00
46816;DHT22;32787;53.316;8.670;2023-05-27T05:56:26;9.20;88.00
46816;DHT22;32787;53.316;8.670;2023-05-27T05:58:52;9.40;87.70
46816;DHT22;32787;53.316;8.670;2023-05-27T06:01:18;9.40;87.30
46816;DHT22;32787;53.316;8.670;2023-05-27T06:03:44;9.30;88.00
46816;DHT22;32787;53.316;8.670;2023-05-27T06:06:09;9.40;88.10
46816;DHT22;32787;53.316;8.670;2023-05-27T06:08:35;9.40;88.00
46816;DHT22;32787;53.316;8.670;2023-05-27T06:11:01;9.40;88.00
46816;DHT22;32787;53.316;8.670;2023-05-27T06:13:26;9.60;88.00
46816;DHT22;32787;53.316;8.670;2023-05-27T06:15:52;9.80;87.70
46816;DHT22;32787;53.316;8.670;2023-05-27T06:18:18;9.80;87.30
46816;DHT22;32787;53.316;8.670;2023-05-27T06:20:43;9.80;87.20
46816;DHT22;32787;53.316;8.670;2023-05-27T06:23:09;9.80;87.40
46816;DHT22;32787;53.316;8.670;2023-05-27T06:25:34;9.80;87.30
46816;DHT22;32787;53.316;8.670;2023-05-27T06:28:00;9.90;87.20
46816;DHT22;32787;53.316;8.670;2023-05-27T06:30:26;9.90;86.80
46816;DHT22;32787;53.316;8.670;2023-05-27T06:32:52;10.10;86.70
46816;DHT22;32787;53.316;8.670;2023-05-27T06:35:18;10.10;86.30
46816;DHT22;32787;53.316;8.670;2023-05-27T06:37:43;10.30;86.30
46816;DHT22;32787;53.316;8.670;2023-05-27T06:40:10;10.30;86.00
46816;DHT22;32787;53.316;8.670;2023-05-27T06:42:36;10.30;86.00
46816;DHT22;32787;53.316;8.670;2023-05-27T06:45:02;10.40;86.00
46816;DHT22;32787;53.316;8.670;2023-05-27T06:47:28;10.50;86.10
46816;DHT22;32787;53.316;8.670;2023-05-27T06:49:54;10.70;86.00
46816;DHT22;32787;53.316;8.670;2023-05-27T06:52:20;10.90;85.60
46816;DHT22;32787;53.316;8.670;2023-05-27T06:54:46;11.10;85.10
46816;DHT22;32787;53.316;8.670;2023-05-27T06:57:12;11.20;84.90
46816;DHT22;32787;53.316;8.670;2023-05-27T06:59:39;11.30;84.10
46816;DHT22;32787;53.316;8.670;2023-05-27T07:02:04;11.10;83.90
46816;DHT22;32787;53.316;8.670;2023-05-27T07:04:30;11.10;84.30
46816;DHT22;32787;53.316;8.670;2023-05-27T07:06:56;11.20;84.50
46816;DHT22;32787;53.316;8.670;2023-05-27T07:09:22;11.20;85.20
46816;DHT22;32787;53.316;8.670;2023-05-27T07:11:47;11.30;84.90
46816;DHT22;32787;53.316;8.670;2023-05-27T07:14:13;11.60;84.30
46816;DHT22;32787;53.316;8.670;2023-05-27T07:16:38;11.50;84.30
46816;DHT22;32787;53.316;8.670;2023-05-27T07:19:04;11.60;84.00
46816;DHT22;32787;53.316;8.670;2023-05-27T07:21:31;11.70;83.70
46816;DHT22;32787;53.316;8.670;2023-05-27T07:23:56;11.80;83.80
46816;DHT22;32787;53.316;8.670;2023-05-27T07:26:28;12.00;82.80
46816;DHT22;32787;53.316;8.670;2023-05-27T07:28:56;12.20;81.90
46816;DHT22;32787;53.316;8.670;2023-05-27T07:31:22;12.20;82.00
46816;DHT22;32787;53.316;8.670;2023-05-27T07:33:47;12.30;82.00
46816;DHT22;32787;53.316;8.670;2023-05-27T07:36:13;12.40;81.70
46816;DHT22;32787;53.316;8.670;2023-05-27T07:38:38;12.40;80.50
46816;DHT22;32787;53.316;8.670;2023-05-27T07:41:04;12.50;81.20
46816;DHT22;32787;53.316;8.670;2023-05-27T07:43:30;12.60;81.50
46816;DHT22;32787;53.316;8.670;2023-05-27T07:45:55;12.70;80.80
46816;DHT22;32787;53.316;8.670;2023-05-27T07:48:21;12.70;81.20
46816;DHT22;32787;53.316;8.670;2023-05-27T07:50:46;12.80;80.80
46816;DHT22;32787;53.316;8.670;2023-05-27T07:53:12;12.80;80.90
46816;DHT22;32787;53.316;8.670;2023-05-27T07:55:38;13.10;79.10
46816;DHT22;32787;53.316;8.670;2023-05-27T07:58:03;13.00;79.30
46816;DHT22;32787;53.316;8.670;2023-05-27T08:00:29;13.00;79.40
46816;DHT22;32787;53.316;8.670;2023-05-27T08:02:55;13.10;77.60
46816;DHT22;32787;53.316;8.670;2023-05-27T08:05:21;13.10;79.30
46816;DHT22;32787;53.316;8.670;2023-05-27T08:07:46;13.20;79.60
46816;DHT22;32787;53.316;8.670;2023-05-27T08:10:12;13.50;77.40
46816;DHT22;32787;53.316;8.670;2023-05-27T08:12:38;13.40;78.30
46816;DHT22;32787;53.316;8.670;2023-05-27T08:15:04;13.50;77.80
46816;DHT22;32787;53.316;8.670;2023-05-27T08:17:30;13.60;76.60
46816;DHT22;32787;53.316;8.670;2023-05-27T08:19:55;13.60;77.40
46816;DHT22;32787;53.316;8.670;2023-05-27T08:22:21;13.80;76.80
46816;DHT22;32787;53.316;8.670;2023-05-27T08:24:46;13.70;77.40
46816;DHT22;32787;53.316;8.670;2023-05-27T08:27:15;13.80;77.10
46816;DHT22;32787;53.316;8.670;2023-05-27T08:29:42;13.90;77.00
46816;DHT22;32787;53.316;8.670;2023-05-27T08:32:07;14.10;74.60
46816;DHT22;32787;53.316;8.670;2023-05-27T08:34:33;14.10;75.30
46816;DHT22;32787;53.316;8.670;2023-05-27T08:36:59;14.20;74.00
46816;DHT22;32787;53.316;8.670;2023-05-27T08:39:25;14.20;74.70
46816;DHT22;32787;53.316;8.670;2023-05-27T08:41:53;14.30;75.20
46816;DHT22;32787;53.316;8.670;2023-05-27T08:44:21;14.40;73.90
46816;DHT22;32787;53.316;8.670;2023-05-27T08:46:49;14.30;73.60
46816;DHT22;32787;53.316;8.670;2023-05-27T08:49:15;14.70;71.90
46816;DHT22;32787;53.316;8.670;2023-05-27T08:51:41;14.60;73.20
46816;DHT22;32787;53.316;8.670;2023-05-27T08:54:10;14.60;74.10
46816;DHT22;32787;53.316;8.670;2023-05-27T08:56:36;14.50;73.50
46816;DHT22;32787;53.316;8.670;2023-05-27T08:59:02;14.60;72.70
46816;DHT22;32787;53.316;8.670;2023-05-27T09:01:29;14.80;71.50
46816;DHT22;32787;53.316;8.670;2023-05-27T09:03:56;14.90;71.40
46816;DHT22;32787;53.316;8.670;2023-05-27T09:06:22;14.90;70.70
46816;DHT22;32787;53.316;8.670;2023-05-27T09:08:47;14.90;71.20
46816;DHT22;32787;53.316;8.670;2023-05-27T09:11:24;15.10;69.50
46816;DHT22;32787;53.316;8.670;2023-05-27T09:13:55;15.00;68.90
46816;DHT22;32787;53.316;8.670;2023-05-27T09:16:21;15.30;68.60
46816;DHT22;32787;53.316;8.670;2023-05-27T09:18:47;15.40;68.50
46816;DHT22;32787;53.316;8.670;2023-05-27T09:21:13;15.50;68.80
46816;DHT22;32787;53.316;8.670;2023-05-27T09:23:40;15.60;68.60
46816;DHT22;32787;53.316;8.670;2023-05-27T09:26:09;15.70;67.10
46816;DHT22;32787;53.316;8.670;2023-05-27T09:28:38;15.80;68.00
46816;DHT22;32787;53.316;8.670;2023-05-27T09:31:06;16.10;64.60
46816;DHT22;32787;53.316;8.670;2023-05-27T09:33:37;16.00;66.10
46816;DHT22;32787;53.316;8.670;2023-05-27T09:36:04;16.20;66.50
46816;DHT22;32787;53.316;8.670;2023-05-27T09:38:31;16.00;65.80
46816;DHT22;32787;53.316;8.670;2023-05-27T09:40:58;16.10;65.20
46816;DHT22;32787;53.316;8.670;2023-05-27T09:43:28;16.30;65.00
46816;DHT22;32787;53.316;8.670;2023-05-27T09:46:07;16.30;64.70
46816;DHT22;32787;53.316;8.670;2023-05-27T09:48:33;16.20;66.10
46816;DHT22;32787;53.316;8.670;2023-05-27T09:50:59;16.30;65.10
46816;DHT22;32787;53.316;8.670;2023-05-27T09:53:26;16.40;64.00
46816;DHT22;32787;53.316;8.670;2023-05-27T09:55:53;16.30;65.50
46816;DHT22;32787;53.316;8.670;2023-05-27T09:58:21;16.20;64.20
46816;DHT22;32787;53.316;8.670;2023-05-27T10:00:48;16.20;63.60
46816;DHT22;32787;53.316;8.670;2023-05-27T10:03:14;16.30;64.50
46816;DHT22;32787;53.316;8.670;2023-05-27T10:05:45;16.40;64.80
46816;DHT22;32787;53.316;8.670;2023-05-27T10:08:11;16.40;63.90
46816;DHT22;32787;53.316;8.670;2023-05-27T10:10:38;16.40;64.60
46816;DHT22;32787;53.316;8.670;2023-05-27T10:13:04;16.40;65.40
46816;DHT22;32787;53.316;8.670;2023-05-27T10:15:31;16.80;64.50
46816;DHT22;32787;53.316;8.670;2023-05-27T10:20:42;17.00;62.00
46816;DHT22;32787;53.316;8.670;2023-05-27T10:23:16;16.80;62.60
46816;DHT22;32787;53.316;8.670;2023-05-27T10:25:51;16.70;62.40
46816;DHT22;32787;53.316;8.670;2023-05-27T10:28:29;16.50;61.90
46816;DHT22;32787;53.316;8.670;2023-05-27T10:31:07;16.60;62.40
46816;DHT22;32787;53.316;8.670;2023-05-27T10:33:43;16.80;61.70
46816;DHT22;32787;53.316;8.670;2023-05-27T10:36:17;17.10;60.90
46816;DHT22;32787;53.316;8.670;2023-05-27T10:38:57;16.80;61.20
46816;DHT22;32787;53.316;8.670;2023-05-27T10:41:23;17.00;60.80
46816;DHT22;32787;53.316;8.670;2023-05-27T10:43:59;17.20;58.50
46816;DHT22;32787;53.316;8.670;2023-05-27T10:46:26;17.50;59.10
46816;DHT22;32787;53.316;8.670;2023-05-27T10:48:52;17.50;58.90
46816;DHT22;32787;53.316;8.670;2023-05-27T10:51:17;17.70;58.00
46816;DHT22;32787;53.316;8.670;2023-05-27T10:53:43;17.70;57.00
46816;DHT22;32787;53.316;8.670;2023-05-27T10:56:09;17.80;57.50
46816;DHT22;32787;53.316;8.670;2023-05-27T10:58:36;17.60;57.40
46816;DHT22;32787;53.316;8.670;2023-05-27T11:01:14;17.50;58.20
46816;DHT22;32787;53.316;8.670;2023-05-27T11:03:44;17.60;57.90
46816;DHT22;32787;53.316;8.670;2023-05-27T11:06:11;17.80;59.10
46816;DHT22;32787;53.316;8.670;2023-05-27T11:08:38;18.30;59.40
46816;DHT22;32787;53.316;8.670;2023-05-27T11:11:08;18.20;58.30
46816;DHT22;32787;53.316;8.670;2023-05-27T11:13:43;18.20;56.10
46816;DHT22;32787;53.316;8.670;2023-05-27T11:16:09;18.30;55.00
46816;DHT22;32787;53.316;8.670;2023-05-27T11:18:43;18.80;54.20
46816;DHT22;32787;53.316;8.670;2023-05-27T11:21:10;20.40;48.30
46816;DHT22;32787;53.316;8.670;2023-05-27T11:23:46;20.70;47.60
46816;DHT22;32787;53.316;8.670;2023-05-27T11:26:14;20.60;48.90
46816;DHT22;32787;53.316;8.670;2023-05-27T11:31:16;22.30;45.60
46816;DHT22;32787;53.316;8.670;2023-05-27T11:33:43;22.20;43.10
46816;DHT22;32787;53.316;8.670;2023-05-27T11:36:12;21.30;45.40
46816;DHT22;32787;53.316;8.670;2023-05-27T11:41:18;19.80;47.20
46816;DHT22;32787;53.316;8.670;2023-05-27T11:46:13;19.70;48.70
46816;DHT22;32787;53.316;8.670;2023-05-27T11:48:40;19.90;49.10
46816;DHT22;32787;53.316;8.670;2023-05-27T11:51:05;19.50;50.40
46816;DHT22;32787;53.316;8.670;2023-05-27T11:53:31;19.50;51.70
46816;DHT22;32787;53.316;8.670;2023-05-27T11:55:56;19.50;50.40
46816;DHT22;32787;53.316;8.670;2023-05-27T11:58:22;19.10;50.60
46816;DHT22;32787;53.316;8.670;2023-05-27T12:00:47;19.20;50.60
46816;DHT22;32787;53.316;8.670;2023-05-27T12:03:13;19.70;50.10
46816;DHT22;32787;53.316;8.670;2023-05-27T12:05:39;19.80;51.30
46816;DHT22;32787;53.316;8.670;2023-05-27T12:08:04;20.10;48.60
46816;DHT22;32787;53.316;8.670;2023-05-27T12:10:30;20.00;49.00
46816;DHT22;32787;53.316;8.670;2023-05-27T12:13:03;20.50;49.40
46816;DHT22;32787;53.316;8.670;2023-05-27T12:15:29;20.50;47.60
46816;DHT22;32787;53.316;8.670;2023-05-27T12:17:55;20.10;51.20
46816;DHT22;32787;53.316;8.670;2023-05-27T12:20:21;19.80;50.70
46816;DHT22;32787;53.316;8.670;2023-05-27T12:22:46;19.80;52.10
46816;DHT22;32787;53.316;8.670;2023-05-27T12:25:12;20.30;50.70
46816;DHT22;32787;53.316;8.670;2023-05-27T12:27:37;20.10;50.20
46816;DHT22;32787;53.316;8.670;2023-05-27T12:30:03;19.80;50.00
46816;DHT22;32787;53.316;8.670;2023-05-27T12:32:29;20.90;47.50
46816;DHT22;32787;53.316;8.670;2023-05-27T12:34:55;22.30;45.50
46816;DHT22;32787;53.316;8.670;2023-05-27T12:37:20;24.40;40.60
46816;DHT22;32787;53.316;8.670;2023-05-27T12:39:46;24.40;40.10
46816;DHT22;32787;53.316;8.670;2023-05-27T12:42:11;25.50;40.10
46816;DHT22;32787;53.316;8.670;2023-05-27T12:44:37;26.40;38.30
46816;DHT22;32787;53.316;8.670;2023-05-27T12:47:03;26.50;37.00
46816;DHT22;32787;53.316;8.670;2023-05-27T12:49:28;26.00;36.70
46816;DHT22;32787;53.316;8.670;2023-05-27T12:51:54;25.90;37.50
46816;DHT22;32787;53.316;8.670;2023-05-27T12:54:19;24.80;37.60
46816;DHT22;32787;53.316;8.670;2023-05-27T12:56:45;24.70;39.00
46816;DHT22;32787;53.316;8.670;2023-05-27T12:59:10;26.00;36.90
46816;DHT22;32787;53.316;8.670;2023-05-27T13:01:36;26.70;36.40
46816;DHT22;32787;53.316;8.670;2023-05-27T13:04:02;26.20;36.60
46816;DHT22;32787;53.316;8.670;2023-05-27T13:06:27;27.20;36.20
46816;DHT22;32787;53.316;8.670;2023-05-27T13:08:53;27.50;33.80
46816;DHT22;32787;53.316;8.670;2023-05-27T13:11:18;26.00;36.20
46816;DHT22;32787;53.316;8.670;2023-05-27T13:13:44;26.30;36.30
46816;DHT22;32787;53.316;8.670;2023-05-27T13:16:10;28.10;35.40
46816;DHT22;32787;53.316;8.670;2023-05-27T13:18:36;28.00;33.10
46816;DHT22;32787;53.316;8.670;2023-05-27T13:21:02;27.20;33.80
46816;DHT22;32787;53.316;8.670;2023-05-27T13:23:28;27.00;34.60
46816;DHT22;32787;53.316;8.670;2023-05-27T13:25:54;27.60;32.90
46816;DHT22;32787;53.316;8.670;2023-05-27T13:28:20;26.20;35.00
46816;DHT22;32787;53.316;8.670;2023-05-27T13:30:45;27.40;34.30
46816;DHT22;32787;53.316;8.670;2023-05-27T13:33:11;28.30;33.00
46816;DHT22;32787;53.316;8.670;2023-05-27T13:35:37;28.30;31.40
46816;DHT22;32787;53.316;8.670;2023-05-27T13:38:02;26.80;34.80
46816;DHT22;32787;53.316;8.670;2023-05-27T13:40:29;28.30;32.50
46816;DHT22;32787;53.316;8.670;2023-05-27T13:42:54;27.30;33.30
46816;DHT22;32787;53.316;8.670;2023-05-27T13:45:20;26.50;34.30
46816;DHT22;32787;53.316;8.670;2023-05-27T13:47:46;27.70;33.30
46816;DHT22;32787;53.316;8.670;2023-05-27T13:50:11;28.80;32.10
46816;DHT22;32787;53.316;8.670;2023-05-27T13:52:37;29.40;32.10
46816;DHT22;32787;53.316;8.670;2023-05-27T13:55:03;29.20;29.90
46816;DHT22;32787;53.316;8.670;2023-05-27T13:57:29;28.40;32.40
46816;DHT22;32787;53.316;8.670;2023-05-27T13:59:55;28.60;30.70
46816;DHT22;32787;53.316;8.670;2023-05-27T14:02:20;29.00;30.90
46816;DHT22;32787;53.316;8.670;2023-05-27T14:04:46;28.30;31.30
46816;DHT22;32787;53.316;8.670;2023-05-27T14:07:12;28.00;31.80
46816;DHT22;32787;53.316;8.670;2023-05-27T14:09:37;28.30;31.50
46816;DHT22;32787;53.316;8.670;2023-05-27T14:12:03;29.00;31.70
46816;DHT22;32787;53.316;8.670;2023-05-27T14:14:29;28.30;30.90
46816;DHT22;32787;53.316;8.670;2023-05-27T14:16:54;27.10;33.10
46816;DHT22;32787;53.316;8.670;2023-05-27T14:19:21;28.10;32.70
46816;DHT22;32787;53.316;8.670;2023-05-27T14:21:47;28.60;31.60
46816;DHT22;32787;53.316;8.670;2023-05-27T14:24:12;28.70;31.50
46816;DHT22;32787;53.316;8.670;2023-05-27T14:26:38;28.60;32.10
46816;DHT22;32787;53.316;8.670;2023-05-27T14:29:04;29.30;30.80
46816;DHT22;32787;53.316;8.670;2023-05-27T14:31:29;28.90;31.10
46816;DHT22;32787;53.316;8.670;2023-05-27T14:33:55;28.50;32.10
46816;DHT22;32787;53.316;8.670;2023-05-27T14:36:20;29.00;30.90
46816;DHT22;32787;53.316;8.670;2023-05-27T14:38:46;29.00;30.70
46816;DHT22;32787;53.316;8.670;2023-05-27T14:41:11;28.20;32.20
46816;DHT22;32787;53.316;8.670;2023-05-27T14:43:37;27.50;32.90
46816;DHT22;32787;53.316;8.670;2023-05-27T14:46:03;27.90;32.30
46816;DHT22;32787;53.316;8.670;2023-05-27T14:48:28;28.10;32.80
46816;DHT22;32787;53.316;8.670;2023-05-27T14:50:54;28.70;31.30
46816;DHT22;32787;53.316;8.670;2023-05-27T14:53:20;28.50;31.80
46816;DHT22;32787;53.316;8.670;2023-05-27T14:55:45;27.40;32.60
46816;DHT22;32787;53.316;8.670;2023-05-27T14:58:11;27.70;33.80
46816;DHT22;32787;53.316;8.670;2023-05-27T15:00:37;27.10;33.20
46816;DHT22;32787;53.316;8.670;2023-05-27T15:03:03;27.60;33.70
46816;DHT22;32787;53.316;8.670;2023-05-27T15:05:28;29.30;31.40
46816;DHT22;32787;53.316;8.670;2023-05-27T15:07:54;29.30;30.80
46816;DHT22;32787;53.316;8.670;2023-05-27T15:10:20;28.40;32.00
46816;DHT22;32787;53.316;8.670;2023-05-27T15:12:46;28.00;33.20
46816;DHT22;32787;53.316;8.670;2023-05-27T15:15:18;27.80;32.10
46816;DHT22;32787;53.316;8.670;2023-05-27T15:17:44;27.60;32.50
46816;DHT22;32787;53.316;8.670;2023-05-27T15:20:11;28.30;33.50
46816;DHT22;32787;53.316;8.670;2023-05-27T15:22:37;27.50;32.20
46816;DHT22;32787;53.316;8.670;2023-05-27T15:25:03;26.90;33.10
46816;DHT22;32787;53.316;8.670;2023-05-27T15:27:30;26.50;34.00
46816;DHT22;32787;53.316;8.670;2023-05-27T15:29:55;27.00;34.50
46816;DHT22;32787;53.316;8.670;2023-05-27T15:32:21;27.90;33.90
46816;DHT22;32787;53.316;8.670;2023-05-27T15:34:47;29.00;32.90
46816;DHT22;32787;53.316;8.670;2023-05-27T15:37:13;29.40;31.70
46816;DHT22;32787;53.316;8.670;2023-05-27T15:39:38;29.40;35.20
46816;DHT22;32787;53.316;8.670;2023-05-27T15:42:04;28.40;38.40
46816;DHT22;32787;53.316;8.670;2023-05-27T15:44:31;28.40;37.70
46816;DHT22;32787;53.316;8.670;2023-05-27T15:46:57;28.30;38.80
46816;DHT22;32787;53.316;8.670;2023-05-27T15:49:22;26.60;40.90